C6047 KTVC-KTVC
Flight info
| Callsign | C6047 |
|---|---|
| Flight time | N/A |
| Altitude | 2500 |
| Route | DCT |
| Aircraft | MH60/M-DFGHIRTUVY/S |
Departure
| Time | 2026-05-05 18:31 |
|---|---|
| Airport | Cherry Capital Airport (KTVC) |
Arrival
| Time | N/A |
|---|---|
| Airport | Cherry Capital Airport (KTVC) |
| Time | Latitude | Longitude | Altitude | Speed | Heading |
|---|---|---|---|---|---|
| 2026-05-05 18:03 | 44.74579 | -85.57944 | 619 ft | 0 kts | 181° |
| 2026-05-05 18:07 | 44.74576 | -85.57944 | 619 ft | 0 kts | 181° |
| 2026-05-05 18:07 | 44.74574 | -85.57944 | 619 ft | 1 kts | 181° |
| 2026-05-05 18:07 | 44.74571 | -85.57944 | 619 ft | 1 kts | 181° |
| 2026-05-05 18:08 | 44.74567 | -85.57944 | 619 ft | 1 kts | 181° |
| 2026-05-05 18:08 | 44.74563 | -85.57945 | 619 ft | 1 kts | 181° |
| 2026-05-05 18:08 | 44.74559 | -85.57945 | 622 ft | 1 kts | 181° |
| 2026-05-05 18:08 | 44.74554 | -85.57945 | 625 ft | 1 kts | 181° |
| 2026-05-05 18:09 | 44.74545 | -85.57945 | 619 ft | 1 kts | 181° |
| 2026-05-05 18:09 | 44.74538 | -85.57941 | 619 ft | 1 kts | 133° |
| 2026-05-05 18:09 | 44.74533 | -85.57931 | 619 ft | 1 kts | 131° |
| 2026-05-05 18:09 | 44.74525 | -85.57925 | 619 ft | 1 kts | 171° |
| 2026-05-05 18:10 | 44.74518 | -85.57927 | 619 ft | 1 kts | 214° |
| 2026-05-05 18:10 | 44.74515 | -85.57934 | 619 ft | 1 kts | 264° |
| 2026-05-05 18:10 | 44.74515 | -85.57942 | 624 ft | 1 kts | 286° |
| 2026-05-05 18:10 | 44.74520 | -85.57949 | 619 ft | 3 kts | 351° |
| 2026-05-05 18:11 | 44.74525 | -85.57948 | 619 ft | 0 kts | 34° |
| 2026-05-05 18:22 | 44.74525 | -85.57947 | 619 ft | 0 kts | 29° |
| 2026-05-05 18:23 | 44.74527 | -85.57983 | 619 ft | 0 kts | 0° |
| 2026-05-05 18:29 | 44.74528 | -85.57983 | 625 ft | 1 kts | 357° |
| 2026-05-05 18:30 | 44.74544 | -85.57963 | 709 ft | 5 kts | 351° |
| 2026-05-05 18:30 | 44.74669 | -85.57907 | 866 ft | 40 kts | 359° |
| 2026-05-05 18:30 | 44.74793 | -85.57866 | 925 ft | 63 kts | 356° |
| 2026-05-05 18:30 | 44.75261 | -85.57719 | 1017 ft | 110 kts | 6° |
| 2026-05-05 18:31 | 44.76114 | -85.57646 | 1172 ft | 131 kts | 360° |
| 2026-05-05 18:31 | 44.77042 | -85.57561 | 1293 ft | 134 kts | 1° |
| 2026-05-05 18:31 | 44.77955 | -85.57461 | 1358 ft | 132 kts | 2° |
| 2026-05-05 18:31 | 44.78856 | -85.57341 | 1508 ft | 130 kts | 3° |
| 2026-05-05 18:32 | 44.79756 | -85.57164 | 1609 ft | 132 kts | 5° |
| 2026-05-05 18:32 | 44.80673 | -85.57004 | 1657 ft | 134 kts | 3° |
| 2026-05-05 18:32 | 44.81610 | -85.56895 | 1666 ft | 136 kts | 0° |
| 2026-05-05 18:32 | 44.82564 | -85.56847 | 1622 ft | 138 kts | 357° |
| 2026-05-05 18:33 | 44.83535 | -85.56855 | 1496 ft | 140 kts | 357° |
| 2026-05-05 18:33 | 44.84486 | -85.56776 | 1512 ft | 133 kts | 1° |
| 2026-05-05 18:33 | 44.85378 | -85.56671 | 1696 ft | 126 kts | 1° |
| 2026-05-05 18:33 | 44.86241 | -85.56618 | 1890 ft | 124 kts | 358° |
| 2026-05-05 18:34 | 44.87144 | -85.56553 | 1926 ft | 134 kts | 359° |
| 2026-05-05 18:34 | 44.88086 | -85.56474 | 1886 ft | 138 kts | 0° |
| 2026-05-05 18:34 | 44.89036 | -85.56362 | 1816 ft | 137 kts | 1° |
| 2026-05-05 18:34 | 44.89962 | -85.56241 | 1881 ft | 134 kts | 1° |
| 2026-05-05 18:35 | 44.90909 | -85.56091 | 1821 ft | 139 kts | 3° |
| 2026-05-05 18:35 | 44.91900 | -85.55957 | 1684 ft | 147 kts | 3° |
| 2026-05-05 18:35 | 44.92942 | -85.55823 | 1557 ft | 151 kts | 2° |
| 2026-05-05 18:35 | 44.94006 | -85.55725 | 1521 ft | 152 kts | 0° |
| 2026-05-05 18:36 | 44.95057 | -85.55634 | 1550 ft | 150 kts | 1° |
| 2026-05-05 18:36 | 44.96094 | -85.55532 | 1600 ft | 149 kts | 1° |
| 2026-05-05 18:36 | 44.97123 | -85.55413 | 1642 ft | 147 kts | 1° |
| 2026-05-05 18:36 | 44.98143 | -85.55324 | 1698 ft | 146 kts | 1° |
| 2026-05-05 18:37 | 44.99170 | -85.55211 | 1712 ft | 148 kts | 2° |
| 2026-05-05 18:37 | 45.00195 | -85.55078 | 1749 ft | 147 kts | 2° |
| 2026-05-05 18:37 | 45.01203 | -85.54952 | 1833 ft | 148 kts | 4° |
| 2026-05-05 18:37 | 45.02240 | -85.54840 | 1796 ft | 151 kts | 360° |
| 2026-05-05 18:38 | 45.03291 | -85.54789 | 1781 ft | 151 kts | 359° |
| 2026-05-05 18:38 | 45.04337 | -85.54749 | 1795 ft | 149 kts | 359° |
| 2026-05-05 18:38 | 45.05376 | -85.54669 | 1805 ft | 150 kts | 0° |
| 2026-05-05 18:38 | 45.05627 | -85.54656 | 1808 ft | 149 kts | 360° |
| 2026-05-05 18:39 | 45.05836 | -85.54647 | 1810 ft | 150 kts | 359° |
| 2026-05-05 18:39 | 45.06884 | -85.54587 | 1876 ft | 153 kts | 0° |
| 2026-05-05 18:39 | 45.07961 | -85.54549 | 1854 ft | 155 kts | 359° |
| 2026-05-05 18:39 | 45.09037 | -85.54538 | 1874 ft | 154 kts | 358° |
| 2026-05-05 18:40 | 45.10091 | -85.54548 | 1825 ft | 153 kts | 358° |
| 2026-05-05 18:40 | 45.11153 | -85.54547 | 1805 ft | 152 kts | 357° |
| 2026-05-05 18:40 | 45.12207 | -85.54562 | 1786 ft | 150 kts | 359° |
| 2026-05-05 18:40 | 45.13251 | -85.54505 | 1830 ft | 150 kts | 2° |
| 2026-05-05 18:41 | 45.14332 | -85.54350 | 1830 ft | 162 kts | 4° |
| 2026-05-05 18:41 | 45.15481 | -85.54209 | 1748 ft | 169 kts | 2° |
| 2026-05-05 18:41 | 45.16650 | -85.54147 | 1722 ft | 165 kts | 358° |
| 2026-05-05 18:41 | 45.17803 | -85.54143 | 1731 ft | 166 kts | 358° |
| 2026-05-05 18:42 | 45.18964 | -85.54120 | 1740 ft | 169 kts | 0° |
| 2026-05-05 18:42 | 45.20126 | -85.54015 | 1715 ft | 168 kts | 1° |
| 2026-05-05 18:42 | 45.21292 | -85.53965 | 1714 ft | 168 kts | 360° |
| 2026-05-05 18:42 | 45.22461 | -85.53923 | 1664 ft | 167 kts | 359° |
| 2026-05-05 18:43 | 45.23632 | -85.53903 | 1587 ft | 169 kts | 359° |
| 2026-05-05 18:43 | 45.24799 | -85.53880 | 1568 ft | 165 kts | 358° |
| 2026-05-05 18:43 | 45.25935 | -85.53877 | 1646 ft | 161 kts | 358° |
| 2026-05-05 18:43 | 45.27051 | -85.53846 | 1752 ft | 160 kts | 0° |
| 2026-05-05 18:44 | 45.28188 | -85.53825 | 1761 ft | 164 kts | 358° |
| 2026-05-05 18:44 | 45.29331 | -85.53853 | 1794 ft | 164 kts | 356° |
| 2026-05-05 18:44 | 45.30476 | -85.53916 | 1794 ft | 165 kts | 356° |
| 2026-05-05 18:44 | 45.31640 | -85.53961 | 1739 ft | 170 kts | 359° |
| 2026-05-05 18:45 | 45.32808 | -85.54011 | 1725 ft | 169 kts | 356° |
| 2026-05-05 18:45 | 45.33976 | -85.54065 | 1778 ft | 167 kts | 357° |
| 2026-05-05 18:45 | 45.35147 | -85.54128 | 1771 ft | 171 kts | 356° |
| 2026-05-05 18:45 | 45.36336 | -85.54199 | 1744 ft | 168 kts | 357° |
| 2026-05-05 18:46 | 45.37455 | -85.54183 | 2010 ft | 154 kts | 1° |